Time;durP1;ratioP1;P1;durP2;ratioP2;P2;SDS_P1;SDS_P2;PMS_P1;PMS_P2;Temp;Humidity;BMP_temperature;BMP_pressure;BME280_temperature;BME280_humidity;BME280_pressure;Samples;Min_cycle;Max_cycle;Signal;HPM_P1;HPM_P2
2022/09/22 00:00:56;;;;;;;;;;;;;;;12.32;100.00;101036.28;10583415;28;20014;-72
2022/09/22 00:06:06;;;;;;;;;;;;;;;12.37;100.00;101033.69;10584794;28;20019;-73
2022/09/22 00:11:15;;;;;;;;;;;;;;;12.34;100.00;101028.47;10591033;28;20002;-73
2022/09/22 00:16:24;;;;;;;;;;;;;;;12.30;100.00;101024.19;10591831;28;19934;-70
2022/09/22 00:21:27;;;;;;;;;;;;;;;12.21;100.00;101022.50;10591758;28;19978;-72
2022/09/22 00:26:31;;;;;;;;;;;;;;;12.30;100.00;101021.59;10591528;28;20010;-71
2022/09/22 00:31:36;;;;;;;;;;;;;;;12.22;100.00;101026.81;10591287;28;19987;-70
2022/09/22 00:36:39;;;;;;;;;;;;;;;12.23;100.00;101025.09;10591068;28;19924;-74
2022/09/22 00:41:43;;;;;;;;;;;;;;;12.29;100.00;101031.13;10576812;28;20018;-71
2022/09/22 00:46:51;;;;;;;;;;;;;;;12.29;100.00;101025.03;10524849;28;20023;-70
2022/09/22 00:51:55;;;;;;;;;;;;;;;12.27;100.00;101022.44;10166629;28;9999838;-73
2022/09/22 00:57:01;;;;;;;;;;;;;;;12.30;100.00;101025.06;10499970;28;19928;-73
2022/09/22 01:02:05;;;;;;;;;;;;;;;12.29;100.00;101020.72;10500049;28;19928;-76
2022/09/22 01:07:10;;;;;;;;;;;;;;;12.29;100.00;101022.44;10500455;28;19928;-75
2022/09/22 01:12:13;;;;;;;;;;;;;;;12.25;100.00;101023.34;10500311;28;20333;-72
2022/09/22 01:17:22;;;;;;;;;;;;;;;12.23;100.00;101023.38;10502736;28;19946;-72
2022/09/22 01:22:36;;;;;;;;;;;;;;;12.23;100.00;101025.09;10505159;28;19924;-73
2022/09/22 01:27:58;;;;;;;;;;;;;;;12.22;100.00;101024.22;10504969;28;20249;-73
2022/09/22 01:33:17;;;;;;;;;;;;;;;12.21;100.00;101042.44;10504901;28;20310;-72
2022/09/22 01:38:25;;;;;;;;;;;;;;;12.23;100.00;101031.19;10504898;28;19933;-71
2022/09/22 01:43:34;;;;;;;;;;;;;;;12.22;100.00;101028.56;10504316;28;20011;-71
2022/09/22 01:48:40;;;;;;;;;;;;;;;12.26;100.00;101036.34;10504171;28;19932;-70
2022/09/22 01:53:47;;;;;;;;;;;;;;;12.24;100.00;101032.00;10503857;28;19928;-73
2022/09/22 01:58:51;;;;;;;;;;;;;;;12.34;100.00;101033.69;10504037;28;19935;-71
2022/09/22 02:03:58;;;;;;;;;;;;;;;12.28;100.00;101031.13;10503632;28;20223;-72
2022/09/22 02:09:04;;;;;;;;;;;;;;;12.27;100.00;101032.03;10205655;28;9999951;-70
2022/09/22 02:14:07;;;;;;;;;;;;;;;12.27;100.00;101026.81;10581156;28;20060;-74
2022/09/22 02:19:15;;;;;;;;;;;;;;;12.25;100.00;101025.97;10581040;28;20259;-74
2022/09/22 02:24:32;;;;;;;;;;;;;;;12.28;100.00;101013.78;10580804;28;20280;-73
2022/09/22 02:29:38;;;;;;;;;;;;;;;12.25;100.00;101018.16;10584007;28;19923;-73
2022/09/22 02:34:42;;;;;;;;;;;;;;;12.26;100.00;101019.88;10586192;28;19946;-72
2022/09/22 02:39:49;;;;;;;;;;;;;;;12.22;100.00;101021.63;10586154;28;19924;-73
2022/09/22 02:44:55;;;;;;;;;;;;;;;12.27;100.00;101026.81;10586089;28;20022;-72
2022/09/22 02:50:00;;;;;;;;;;;;;;;12.30;100.00;101024.19;10585867;28;20011;-72
2022/09/22 02:55:04;;;;;;;;;;;;;;;12.30;100.00;101029.38;10586217;28;20252;-64
2022/09/22 03:00:07;;;;;;;;;;;;;;;12.31;100.00;101034.59;10561231;28;19924;-74
2022/09/22 03:05:12;;;;;;;;;;;;;;;12.28;100.00;101029.41;10190564;28;10000289;-75
2022/09/22 03:10:15;;;;;;;;;;;;;;;12.19;100.00;101032.06;10540034;28;20065;-72
2022/09/22 03:15:18;;;;;;;;;;;;;;;12.27;100.00;101029.41;10543022;28;19934;-73
2022/09/22 03:20:29;;;;;;;;;;;;;;;12.24;100.00;101026.81;10543597;28;19924;-70
2022/09/22 03:25:32;;;;;;;;;;;;;;;12.19;100.00;101024.25;10542834;28;19939;-75
2022/09/22 03:30:36;;;;;;;;;;;;;;;12.18;100.00;101026.88;10542817;28;20034;-74
2022/09/22 03:35:41;;;;;;;;;;;;;;;12.26;100.00;101030.28;10542521;28;19924;-73
2022/09/22 03:40:49;;;;;;;;;;;;;;;12.24;100.00;101025.09;10542413;28;20241;-75
2022/09/22 03:45:55;;;;;;;;;;;;;;;12.29;100.00;101036.31;10550874;28;20268;-75
2022/09/22 03:50:59;;;;;;;;;;;;;;;12.36;100.00;101037.16;10551037;28;19925;-69
2022/09/22 03:56:07;;;;;;;;;;;;;;;12.38;100.00;101033.66;10550477;28;19931;-75
2022/09/22 04:01:10;;;;;;;;;;;;;;;12.31;100.00;101033.72;10550671;28;19932;-73
2022/09/22 04:06:14;;;;;;;;;;;;;;;12.38;100.00;101040.59;10550824;28;19966;-71
2022/09/22 04:11:17;;;;;;;;;;;;;;;12.36;100.00;101045.81;10550470;28;20485;-71
2022/09/22 04:16:21;;;;;;;;;;;;;;;12.31;100.00;101042.41;10550113;28;20015;-72
2022/09/22 04:21:25;;;;;;;;;;;;;;;12.33;100.00;101040.66;10550188;28;20396;-71
2022/09/22 04:26:28;;;;;;;;;;;;;;;12.22;100.00;101039.84;10550140;28;19924;-73
2022/09/22 04:31:31;;;;;;;;;;;;;;;12.28;100.00;101041.53;10549082;28;20012;-76
2022/09/22 04:36:36;;;;;;;;;;;;;;;12.24;100.00;101047.63;10548783;28;19928;-71
2022/09/22 04:41:39;;;;;;;;;;;;;;;12.35;100.00;101051.06;10531907;28;19931;-72
2022/09/22 04:46:44;;;;;;;;;;;;;;;12.39;100.00;101052.78;10506607;28;19934;-72
2022/09/22 04:51:49;;;;;;;;;;;;;;;12.43;100.00;101049.25;10506987;28;20011;-72
2022/09/22 04:56:52;;;;;;;;;;;;;;;12.39;100.00;101050.16;10505665;28;19924;-69
2022/09/22 05:01:55;;;;;;;;;;;;;;;12.44;100.00;101048.41;10506083;28;19971;-71
2022/09/22 05:06:59;;;;;;;;;;;;;;;12.47;100.00;101045.75;10505864;28;20015;-70
2022/09/22 05:12:02;;;;;;;;;;;;;;;12.48;100.00;101055.28;10505490;28;19924;-72
2022/09/22 05:17:05;;;;;;;;;;;;;;;12.51;100.00;101063.94;10505300;28;19935;-72
2022/09/22 05:22:10;;;;;;;;;;;;;;;12.44;100.00;101061.41;10504944;28;19934;-70
2022/09/22 05:27:13;;;;;;;;;;;;;;;12.47;100.00;101069.19;10487860;28;20014;-75
2022/09/22 05:32:16;;;;;;;;;;;;;;;12.52;100.00;101064.81;10510299;28;19924;-75
2022/09/22 05:37:20;;;;;;;;;;;;;;;12.53;100.00;101067.41;10557192;28;20280;-71
2022/09/22 05:42:23;;;;;;;;;;;;;;;12.59;100.00;101069.97;10554986;28;19928;-77
2022/09/22 05:47:26;;;;;;;;;;;;;;;12.70;100.00;101070.75;10540238;28;19972;-77
2022/09/22 05:52:31;;;;;;;;;;;;;;;12.73;100.00;101065.50;10537649;28;19943;-76
2022/09/22 05:57:34;;;;;;;;;;;;;;;12.74;100.00;101076.81;10535152;28;19935;-77
2022/09/22 06:02:39;;;;;;;;;;;;;;;12.81;100.00;101073.28;10538382;28;20331;-78
2022/09/22 06:07:43;;;;;;;;;;;;;;;12.84;100.00;101078.47;10522180;28;20352;-73
2022/09/22 06:12:47;;;;;;;;;;;;;;;12.82;100.00;101088.91;10521263;28;19939;-68
2022/09/22 06:17:54;;;;;;;;;;;;;;;12.73;100.00;101088.13;10497702;28;20015;-70
2022/09/22 06:22:58;;;;;;;;;;;;;;;12.59;100.00;101085.63;10497245;28;20051;-71
2022/09/22 06:28:03;;;;;;;;;;;;;;;12.78;100.00;101089.81;10496365;28;19935;-70
2022/09/22 06:33:06;;;;;;;;;;;;;;;12.91;100.00;101082.75;10496874;28;19956;-75
2022/09/22 06:38:13;;;;;;;;;;;;;;;12.94;100.00;101079.28;10185363;28;9999766;-70
2022/09/22 06:43:21;;;;;;;;;;;;;;;13.05;100.00;101080.94;10580163;28;20368;-76
2022/09/22 06:48:24;;;;;;;;;;;;;;;13.06;100.00;101082.69;10555736;28;19924;-74
2022/09/22 06:53:29;;;;;;;;;;;;;;;13.10;100.00;101092.19;10537310;28;20361;-73
2022/09/22 06:58:32;;;;;;;;;;;;;;;13.18;100.00;101079.97;10534263;28;19934;-75
2022/09/22 07:03:55;;;;;;;;;;;;;;;13.26;100.00;101078.13;10528189;28;20013;-71
2022/09/22 07:09:00;;;;;;;;;;;;;;;13.27;100.00;101079.84;10521539;28;19929;-73
2022/09/22 07:14:03;;;;;;;;;;;;;;;13.39;100.00;101081.50;10537266;28;19967;-75
2022/09/22 07:19:06;;;;;;;;;;;;;;;13.41;100.00;101088.41;10522283;28;19931;-69
2022/09/22 07:24:11;;;;;;;;;;;;;;;13.44;100.00;101085.75;10539910;28;19928;-76
2022/09/22 07:29:15;;;;;;;;;;;;;;;13.57;100.00;101086.50;10512181;28;20024;-75
2022/09/22 07:34:18;;;;;;;;;;;;;;;13.64;100.00;101085.56;10495736;28;20416;-78
2022/09/22 07:39:23;;;;;;;;;;;;;;;13.77;100.00;101098.44;10527107;28;19938;-77
2022/09/22 07:49:48;;;;;;;;;;;;;;;13.83;100.00;101085.34;10508155;28;20011;-66
2022/09/22 07:54:52;;;;;;;;;;;;;;;13.88;100.00;101088.78;10494665;28;20504;-67
2022/09/22 07:59:56;;;;;;;;;;;;;;;13.96;100.00;101083.44;10520561;28;19934;-75
2022/09/22 08:05:00;;;;;;;;;;;;;;;14.11;100.00;101087.63;10535709;28;19956;-73
2022/09/22 08:10:05;;;;;;;;;;;;;;;14.14;100.00;101085.81;10491444;28;19989;-72
2022/09/22 08:15:09;;;;;;;;;;;;;;;14.25;100.00;101080.47;10494200;28;19960;-72
2022/09/22 08:20:12;;;;;;;;;;;;;;;14.29;100.00;101083.03;10519976;28;20329;-75
2022/09/22 08:25:16;;;;;;;;;;;;;;;14.22;100.00;101086.59;10535310;28;19938;-76
2022/09/22 08:30:19;;;;;;;;;;;;;;;14.29;100.00;101097.88;10537800;28;20330;-77
2022/09/22 08:35:23;;;;;;;;;;;;;;;14.30;99.82;101090.00;10543459;28;19927;-74
2022/09/22 08:40:28;;;;;;;;;;;;;;;14.35;99.13;101088.19;10516019;28;19996;-74
2022/09/22 08:45:33;;;;;;;;;;;;;;;14.32;99.63;101082.16;10501541;28;20376;-71
2022/09/22 08:56:06;;;;;;;;;;;;;;;14.58;98.50;101082.66;10547633;28;19928;-72
2022/09/22 09:01:16;;;;;;;;;;;;;;;14.91;95.48;101079.50;10542944;28;19971;-78
2022/09/22 09:06:22;;;;;;;;;;;;;;;15.06;93.83;101076.63;10543246;28;19935;-78
2022/09/22 09:11:30;;;;;;;;;;;;;;;15.15;93.12;101068.66;10541976;28;19935;-77
2022/09/22 09:16:42;;;;;;;;;;;;;;;15.33;91.25;101057.84;10541594;28;20300;-75
2022/09/22 09:21:53;;;;;;;;;;;;;;;15.43;90.79;101059.44;10542240;28;19932;-76
2022/09/22 09:26:59;;;;;;;;;;;;;;;15.58;90.63;101055.66;10541164;28;19924;-74
2022/09/22 09:32:07;;;;;;;;;;;;;;;15.69;88.58;101051.06;10540258;28;19924;-73
2022/09/22 09:37:13;;;;;;;;;;;;;;;15.84;88.20;101059.47;10551328;28;20014;-74
2022/09/22 09:42:22;;;;;;;;;;;;;;;16.45;84.49;101047.69;10582135;28;20371;-73
2022/09/22 09:47:50;;;;;;;;;;;;;;;16.47;83.77;101048.53;10582241;28;20017;-74
2022/09/22 09:52:54;;;;;;;;;;;;;;;16.19;84.06;101041.28;10550080;28;20407;-73
2022/09/22 09:58:06;;;;;;;;;;;;;;;15.95;84.90;101044.44;10581406;28;19934;-74
2022/09/22 10:03:14;;;;;;;;;;;;;;;15.72;84.25;101046.63;10581283;28;19997;-77
2022/09/22 10:08:19;;;;;;;;;;;;;;;15.64;82.68;101038.09;10574140;28;19981;-74
2022/09/22 10:13:27;;;;;;;;;;;;;;;15.80;80.53;101047.38;10503314;28;19924;-76
2022/09/22 10:18:33;;;;;;;;;;;;;;;16.88;77.69;101028.31;10539698;28;19936;-79
2022/09/22 10:23:36;;;;;;;;;;;;;;;16.90;76.16;101036.13;10538534;28;19928;-76
2022/09/22 10:28:40;;;;;;;;;;;;;;;16.81;77.11;101047.69;10538493;28;19924;-76
2022/09/22 10:33:54;;;;;;;;;;;;;;;16.73;72.56;101027.81;10538849;28;20244;-76
2022/09/22 10:38:57;;;;;;;;;;;;;;;16.61;71.76;101042.09;10539904;28;19946;-78
2022/09/22 10:44:06;;;;;;;;;;;;;;;16.02;79.33;101047.78;10539068;28;20015;-76
2022/09/22 10:49:35;;;;;;;;;;;;;;;15.36;85.40;101036.84;10538510;28;19924;-74
2022/09/22 10:54:50;;;;;;;;;;;;;;;15.55;88.80;101040.03;10537629;28;19930;-74
2022/09/22 11:00:10;;;;;;;;;;;;;;;15.69;88.00;101043.22;10537119;28;20404;-76
2022/09/22 11:12:15;;;;;;;;;;;;;;;15.78;86.31;101043.03;10538058;28;20323;-74
2022/09/22 11:16:28;;;;;;;;;;;;;;;15.60;89.38;101035.56;10536762;28;19932;-75
2022/09/22 11:21:39;;;;;;;;;;;;;;;15.50;88.38;101028.78;10538059;28;19945;-75
2022/09/22 11:26:47;;;;;;;;;;;;;;;15.49;85.35;101032.28;10536815;28;20027;-75
2022/09/22 11:31:55;;;;;;;;;;;;;;;15.50;83.74;101029.63;10536658;28;19935;-74
2022/09/22 11:37:24;;;;;;;;;;;;;;;15.66;82.32;101024.97;10546245;28;19927;-75
2022/09/22 11:42:31;;;;;;;;;;;;;;;15.53;81.00;101020.88;10562064;28;19924;-73
2022/09/22 11:47:47;;;;;;;;;;;;;;;15.45;80.91;101021.03;10545198;28;19931;-71
2022/09/22 11:53:01;;;;;;;;;;;;;;;15.40;79.59;101019.38;10541436;28;20019;-71
2022/09/22 11:58:07;;;;;;;;;;;;;;;15.44;79.58;101026.28;10541978;28;20357;-75
2022/09/22 12:03:13;;;;;;;;;;;;;;;15.52;78.64;101022.63;10542494;28;19924;-75
2022/09/22 12:08:17;;;;;;;;;;;;;;;15.54;78.00;101028.69;10550024;28;20309;-71
2022/09/22 12:13:22;;;;;;;;;;;;;;;15.50;77.52;101016.56;10549378;28;19924;-73
2022/09/22 12:18:31;;;;;;;;;;;;;;;15.45;78.15;101020.16;10549981;28;19984;-74
2022/09/22 12:23:38;;;;;;;;;;;;;;;15.48;77.12;101015.72;10549554;28;20019;-71
2022/09/22 12:28:43;;;;;;;;;;;;;;;15.46;77.58;101020.13;10549837;28;20261;-71
2022/09/22 12:33:49;;;;;;;;;;;;;;;15.44;78.56;101018.44;10549013;28;19928;-74
2022/09/22 12:38:52;;;;;;;;;;;;;;;15.45;78.58;101009.69;10548833;28;19924;-72
2022/09/22 12:44:06;;;;;;;;;;;;;;;15.41;77.13;101013.28;10548718;28;20218;-74
2022/09/22 12:49:13;;;;;;;;;;;;;;;15.38;77.36;101015.91;10548841;28;20106;-72
2022/09/22 12:54:46;;;;;;;;;;;;;;;15.47;77.43;101010.53;10548503;28;20011;-71
2022/09/22 13:00:21;;;;;;;;;;;;;;;15.46;77.55;101014.88;10540503;28;20053;-74
2022/09/22 13:05:33;;;;;;;;;;;;;;;15.53;79.08;101011.25;10543256;28;19983;-73
2022/09/22 13:10:42;;;;;;;;;;;;;;;15.56;78.38;101018.19;10190621;28;9999922;-76
2022/09/22 13:15:56;;;;;;;;;;;;;;;15.61;78.02;101006.75;10537526;28;20402;-77
2022/09/22 13:21:01;;;;;;;;;;;;;;;15.70;78.22;101001.31;10540263;28;20042;-74
2022/09/22 13:26:08;;;;;;;;;;;;;;;15.83;76.78;101001.91;10539070;28;19985;-73
2022/09/22 13:31:12;;;;;;;;;;;;;;;15.78;76.56;101001.16;10534564;28;19930;-77
2022/09/22 13:36:18;;;;;;;;;;;;;;;15.71;77.43;100987.34;10539877;28;19932;-73
2022/09/22 13:41:23;;;;;;;;;;;;;;;15.87;76.71;100991.38;10537228;28;19989;-67
2022/09/22 13:46:28;;;;;;;;;;;;;;;15.85;77.42;100995.78;10540557;28;20010;-70
2022/09/22 13:51:33;;;;;;;;;;;;;;;15.87;77.92;100996.63;10545327;28;20015;-70
2022/09/22 13:56:36;;;;;;;;;;;;;;;15.86;78.62;100994.88;10544835;28;20315;-67
2022/09/22 14:01:46;;;;;;;;;;;;;;;15.83;77.91;100983.59;10544843;28;20007;-71
2022/09/22 14:06:58;;;;;;;;;;;;;;;15.85;77.61;100984.44;10542440;28;20062;-70
2022/09/22 14:12:01;;;;;;;;;;;;;;;15.87;77.00;100988.75;10545015;28;19935;-68
2022/09/22 14:17:05;;;;;;;;;;;;;;;15.79;75.70;100982.81;10534216;28;19934;-69
2022/09/22 14:22:16;;;;;;;;;;;;;;;15.75;74.65;100982.91;10543967;28;19963;-68
2022/09/22 14:27:21;;;;;;;;;;;;;;;15.68;75.26;100981.31;10542863;28;19924;-67
2022/09/22 14:32:26;;;;;;;;;;;;;;;15.53;76.77;100981.63;10541021;28;19932;-69
2022/09/22 14:37:33;;;;;;;;;;;;;;;15.27;77.63;100984.75;10534503;28;20131;-72
2022/09/22 14:42:37;;;;;;;;;;;;;;;15.27;77.65;100989.97;10542348;28;20351;-70
2022/09/22 14:47:41;;;;;;;;;;;;;;;15.32;77.35;100984.63;10535266;28;19935;-71
2022/09/22 14:52:51;;;;;;;;;;;;;;;15.32;76.80;100979.41;10537503;28;19927;-69
2022/09/22 14:57:55;;;;;;;;;;;;;;;15.28;77.23;100972.50;10529094;28;20049;-67
2022/09/22 15:02:59;;;;;;;;;;;;;;;15.13;76.90;100968.44;10188311;28;10000470;-69
2022/09/22 15:08:04;;;;;;;;;;;;;;;15.11;77.68;100970.22;10537365;28;19940;-68
2022/09/22 15:13:20;;;;;;;;;;;;;;;15.04;77.52;100968.59;10535147;28;20321;-67
2022/09/22 15:18:23;;;;;;;;;;;;;;;15.05;78.72;100962.47;10526547;28;20011;-70
2022/09/22 15:23:38;;;;;;;;;;;;;;;15.07;79.94;100965.94;10536545;28;20345;-68
2022/09/22 15:28:42;;;;;;;;;;;;;;;15.02;81.12;100967.78;10532919;28;19952;-67
2022/09/22 15:33:45;;;;;;;;;;;;;;;14.93;82.37;100974.03;10536712;28;19935;-67
2022/09/22 15:38:50;;;;;;;;;;;;;;;14.86;81.05;100972.41;10540343;28;19924;-66
2022/09/22 15:43:53;;;;;;;;;;;;;;;14.89;80.82;100977.56;10544867;28;19928;-67
2022/09/22 15:48:58;;;;;;;;;;;;;;;14.96;79.35;100989.66;10544666;28;20425;-69
2022/09/22 15:54:03;;;;;;;;;;;;;;;14.91;79.61;100988.00;10538096;28;19975;-68
2022/09/22 15:59:07;;;;;;;;;;;;;;;14.85;76.68;100991.59;10544768;28;19939;-69
2022/09/22 16:04:10;;;;;;;;;;;;;;;14.83;77.50;100998.59;10558288;28;19935;-69
2022/09/22 16:09:15;;;;;;;;;;;;;;;14.83;78.58;101003.84;10544408;28;19963;-67
2022/09/22 16:14:18;;;;;;;;;;;;;;;14.79;78.93;100996.06;10545317;28;19972;-70
2022/09/22 16:19:21;;;;;;;;;;;;;;;14.75;79.48;101000.47;10545418;28;20016;-67
2022/09/22 16:24:27;;;;;;;;;;;;;;;14.74;78.85;101005.72;10544005;28;19935;-67
2022/09/22 16:29:31;;;;;;;;;;;;;;;14.68;78.95;100995.38;10543249;28;19982;-74
2022/09/22 16:34:34;;;;;;;;;;;;;;;14.68;79.22;100998.00;10543004;28;20415;-70
2022/09/22 16:39:39;;;;;;;;;;;;;;;14.63;78.60;100995.44;10543132;28;19955;-70
2022/09/22 16:44:42;;;;;;;;;;;;;;;14.57;78.53;101007.75;10521248;28;20339;-74
2022/09/22 16:49:46;;;;;;;;;;;;;;;14.51;79.25;101007.88;10531882;28;20320;-72
2022/09/22 16:54:50;;;;;;;;;;;;;;;14.46;80.51;101005.31;10542308;28;19977;-71
2022/09/22 16:59:55;;;;;;;;;;;;;;;14.42;81.86;101010.63;10542410;28;19939;-70
2022/09/22 17:04:58;;;;;;;;;;;;;;;14.42;83.10;101018.44;10558455;28;19950;-71
2022/09/22 17:10:04;;;;;;;;;;;;;;;14.36;83.98;101010.69;10541890;28;19924;-75
2022/09/22 17:15:10;;;;;;;;;;;;;;;14.31;84.36;101012.50;10541162;28;20541;-72
2022/09/22 17:20:16;;;;;;;;;;;;;;;14.39;84.30;101019.34;10541513;28;19993;-70
2022/09/22 17:25:20;;;;;;;;;;;;;;;14.42;84.42;101027.16;10540947;28;20408;-69
2022/09/22 17:30:24;;;;;;;;;;;;;;;14.40;84.01;101022.81;10540720;28;20022;-71
2022/09/22 17:35:26;;;;;;;;;;;;;;;14.37;83.95;101022.88;10540701;28;19924;-70
2022/09/22 17:40:31;;;;;;;;;;;;;;;14.32;84.02;101016.88;10540859;28;20035;-73
2022/09/22 17:45:34;;;;;;;;;;;;;;;14.31;84.57;101017.72;10540503;28;19928;-72
2022/09/22 17:56:03;;;;;;;;;;;;;;;14.25;86.40;101036.09;10524075;28;19940;-73
2022/09/22 18:01:07;;;;;;;;;;;;;;;14.22;87.46;101030.91;10541879;28;19985;-72
2022/09/22 18:06:14;;;;;;;;;;;;;;;14.18;87.81;101037.06;10540179;28;19927;-73
2022/09/22 18:11:26;;;;;;;;;;;;;;;14.13;88.40;101044.97;10539714;28;19928;-75
2022/09/22 18:16:32;;;;;;;;;;;;;;;14.09;88.96;101048.47;10539204;28;20019;-71
2022/09/22 18:21:38;;;;;;;;;;;;;;;14.05;89.18;101051.16;10539284;28;19928;-71
2022/09/22 18:26:42;;;;;;;;;;;;;;;14.03;89.48;101040.72;10538637;28;19936;-71
2022/09/22 18:31:46;;;;;;;;;;;;;;;13.99;88.80;101040.78;10538393;28;19946;-71
2022/09/22 18:36:49;;;;;;;;;;;;;;;13.94;88.48;101049.53;10538321;28;19978;-74
2022/09/22 18:41:55;;;;;;;;;;;;;;;13.94;88.57;101066.97;10539070;28;19988;-72
2022/09/22 18:47:02;;;;;;;;;;;;;;;13.84;89.42;101058.38;10537013;28;19924;-71
2022/09/22 18:52:06;;;;;;;;;;;;;;;13.79;89.22;101062.78;10537196;28;20365;-72
2022/09/22 18:57:11;;;;;;;;;;;;;;;13.77;89.07;101059.31;10536046;28;19932;-72
2022/09/22 19:02:14;;;;;;;;;;;;;;;13.60;89.67;101049.94;10531477;28;19942;-63
2022/09/22 19:12:45;;;;;;;;;;;;;;;13.48;90.71;101050.97;10534029;28;20255;-63
2022/09/22 19:17:49;;;;;;;;;;;;;;;13.46;90.95;101051.88;10536860;28;20249;-66
2022/09/22 19:22:52;;;;;;;;;;;;;;;13.39;91.89;101052.81;10536212;28;19983;-64
2022/09/22 19:27:57;;;;;;;;;;;;;;;13.16;92.79;101053.03;10536567;28;19924;-64
2022/09/22 19:33:00;;;;;;;;;;;;;;;13.17;93.27;101051.28;10537975;28;19924;-63
2022/09/22 19:38:04;;;;;;;;;;;;;;;13.17;93.42;101051.28;10535084;28;20393;-62
2022/09/22 19:43:08;;;;;;;;;;;;;;;13.22;94.06;101060.78;10536896;28;19925;-70
2022/09/22 19:48:13;;;;;;;;;;;;;;;13.23;93.68;101059.94;10536744;28;19967;-71
2022/09/22 19:53:16;;;;;;;;;;;;;;;13.24;94.33;101063.38;10536078;28;19928;-71
2022/09/22 19:58:20;;;;;;;;;;;;;;;13.21;94.27;101064.28;10535471;28;19935;-72
2022/09/22 20:03:24;;;;;;;;;;;;;;;13.15;94.64;101068.69;10535381;28;19963;-70
2022/09/22 20:08:30;;;;;;;;;;;;;;;13.09;94.92;101063.53;10535444;28;20401;-73
2022/09/22 20:18:55;;;;;;;;;;;;;;;13.04;95.03;101062.72;10527101;28;20015;-72
2022/09/22 20:23:58;;;;;;;;;;;;;;;13.04;94.79;101053.16;10535115;28;20018;-72
2022/09/22 20:29:03;;;;;;;;;;;;;;;13.01;95.06;101060.09;10540168;28;20372;-72
2022/09/22 20:34:07;;;;;;;;;;;;;;;12.92;95.51;101061.03;10543718;28;19928;-71
2022/09/22 20:39:12;;;;;;;;;;;;;;;12.96;95.22;101052.31;10539394;28;20019;-73
2022/09/22 20:44:17;;;;;;;;;;;;;;;12.97;95.12;101063.59;10501015;28;20261;-72
2022/09/22 20:49:21;;;;;;;;;;;;;;;12.86;95.80;101061.09;10501290;28;19935;-71
2022/09/22 20:54:24;;;;;;;;;;;;;;;12.88;95.63;101063.66;10503411;28;19932;-73
2022/09/22 20:59:28;;;;;;;;;;;;;;;12.88;94.97;101059.34;10506328;28;19936;-71
2022/09/22 21:04:31;;;;;;;;;;;;;;;12.93;94.16;101052.34;10506220;28;19924;-72
2022/09/22 21:14:56;;;;;;;;;;;;;;;12.92;93.66;101058.44;10506005;28;19935;-70
2022/09/22 21:19:59;;;;;;;;;;;;;;;12.88;93.75;101061.06;10505574;28;20042;-74
2022/09/22 21:25:02;;;;;;;;;;;;;;;12.90;94.54;101044.56;10506062;28;20352;-71
2022/09/22 21:30:08;;;;;;;;;;;;;;;12.87;94.88;101055.00;10505167;28;19970;-73
2022/09/22 21:35:15;;;;;;;;;;;;;;;12.84;95.31;101055.00;10504798;28;19924;-70
2022/09/22 21:40:18;;;;;;;;;;;;;;;12.76;94.97;101049.88;10504895;28;20015;-73
2022/09/22 21:45:23;;;;;;;;;;;;;;;12.81;95.63;101055.03;10504916;28;20413;-69
2022/09/22 21:50:27;;;;;;;;;;;;;;;12.76;95.49;101060.31;10166884;28;9999860;-66
2022/09/22 21:55:30;;;;;;;;;;;;;;;12.72;96.08;101057.72;10540590;28;20019;-66
2022/09/22 22:00:34;;;;;;;;;;;;;;;12.61;96.68;101051.75;10539739;28;19934;-65
2022/09/22 22:05:58;;;;;;;;;;;;;;;12.63;97.81;101056.03;10539651;28;19971;-65
2022/09/22 22:11:03;;;;;;;;;;;;;;;12.61;97.68;101044.78;10539580;28;19943;-70
2022/09/22 22:16:08;;;;;;;;;;;;;;;12.63;97.28;101047.41;10539834;28;19928;-72
2022/09/22 22:21:13;;;;;;;;;;;;;;;12.61;97.01;101041.31;10539691;28;19939;-70
2022/09/22 22:26:19;;;;;;;;;;;;;;;12.63;96.04;101036.97;10538816;28;19928;-71
2022/09/22 22:31:24;;;;;;;;;;;;;;;12.56;96.55;101037.91;10539259;28;20471;-70
2022/09/22 22:36:27;;;;;;;;;;;;;;;12.45;97.41;101032.75;10538521;28;19928;-70
2022/09/22 22:41:30;;;;;;;;;;;;;;;12.46;97.43;101029.25;10538394;28;20401;-72
2022/09/22 22:46:35;;;;;;;;;;;;;;;12.40;97.84;101026.72;10538181;28;19928;-73
2022/09/22 22:51:41;;;;;;;;;;;;;;;12.36;97.96;101021.53;10562441;28;19928;-76
2022/09/22 22:56:44;;;;;;;;;;;;;;;12.29;98.85;101019.84;10579817;28;19928;-75
2022/09/22 23:01:54;;;;;;;;;;;;;;;12.32;98.27;101022.44;10579611;28;19934;-72
2022/09/22 23:06:57;;;;;;;;;;;;;;;12.21;98.29;101016.44;10580950;28;19924;-69
2022/09/22 23:12:00;;;;;;;;;;;;;;;12.06;99.59;101016.53;10581844;28;19927;-73
2022/09/22 23:17:05;;;;;;;;;;;;;;;12.04;99.15;101021.75;10581390;28;19959;-70
2022/09/22 23:22:07;;;;;;;;;;;;;;;11.67;100.00;101019.28;10580570;28;20015;-66
2022/09/22 23:27:11;;;;;;;;;;;;;;;11.80;100.00;101015.78;10579163;28;19924;-73
2022/09/22 23:32:15;;;;;;;;;;;;;;;11.93;100.00;101020.06;10578895;28;19938;-72
2022/09/22 23:37:18;;;;;;;;;;;;;;;11.89;99.79;101028.75;10578775;28;19927;-72
2022/09/22 23:42:23;;;;;;;;;;;;;;;11.70;100.00;101019.31;10579405;28;19924;-68
2022/09/22 23:47:27;;;;;;;;;;;;;;;11.49;100.00;101020.22;10579219;28;19924;-73
2022/09/22 23:52:30;;;;;;;;;;;;;;;11.69;100.00;101021.03;10546251;28;19928;-70
2022/09/22 23:57:33;;;;;;;;;;;;;;;11.72;100.00;101026.22;10537205;28;19925;-72
